createdAt,value
2022-11-03T00:00:15.484Z,28.10
2022-11-03T00:05:35.840Z,29.30
2022-11-03T00:10:37.722Z,28.80
2022-11-03T00:15:48.406Z,35.40
2022-11-03T00:21:02.141Z,53.20
2022-11-03T00:26:28.307Z,47.30
2022-11-03T00:36:37.736Z,53.90
2022-11-03T00:41:40.082Z,55.30
2022-11-03T00:46:41.892Z,47.50
2022-11-03T00:51:43.631Z,48.10
2022-11-03T00:56:45.615Z,43.40
2022-11-03T01:01:48.133Z,33.60
2022-11-03T01:06:54.442Z,43.50
2022-11-03T01:12:02.827Z,38.80
2022-11-03T01:17:07.046Z,39.20
2022-11-03T01:22:10.890Z,41.90
2022-11-03T01:27:16.233Z,43.30
2022-11-03T01:32:17.972Z,47.30
2022-11-03T01:37:19.881Z,51.10
2022-11-03T01:42:21.706Z,43.60
2022-11-03T01:47:29.898Z,38.20
2022-11-03T01:52:37.699Z,34.70
2022-11-03T02:02:48.017Z,40.10
2022-11-03T02:08:15.283Z,46.20
2022-11-03T02:13:23.022Z,35.80
2022-11-03T02:23:42.175Z,38.10
2022-11-03T02:28:44.435Z,51.00
2022-11-03T02:34:11.665Z,51.10
2022-11-03T02:39:22.131Z,39.20
2022-11-03T02:44:26.197Z,45.10
2022-11-03T02:49:28.359Z,51.20
2022-11-03T02:54:43.214Z,40.00
2022-11-03T02:59:58.170Z,57.20
2022-11-03T03:05:03.890Z,45.50
2022-11-03T03:10:14.702Z,63.30
2022-11-03T03:15:18.599Z,48.20
2022-11-03T03:20:27.818Z,42.40
2022-11-03T03:25:56.061Z,45.90
2022-11-03T03:36:07.991Z,48.00
2022-11-03T03:41:22.043Z,48.90
2022-11-03T03:46:29.260Z,58.90
2022-11-03T03:51:32.159Z,59.90
2022-11-03T03:56:43.748Z,59.00
2022-11-03T04:01:45.715Z,49.70
2022-11-03T04:06:47.772Z,52.40
2022-11-03T04:12:08.247Z,50.50
2022-11-03T04:17:39.377Z,49.30
2022-11-03T04:22:41.233Z,43.50
2022-11-03T04:27:44.655Z,51.10
2022-11-03T04:32:48.822Z,49.40
2022-11-03T04:38:13.818Z,50.50
2022-11-03T04:43:19.023Z,57.10
2022-11-03T04:48:25.509Z,56.00
2022-11-03T04:53:31.557Z,54.40
2022-11-03T04:58:35.753Z,61.50
2022-11-03T05:03:39.026Z,54.00
2022-11-03T05:08:42.832Z,63.60
2022-11-03T05:13:44.704Z,57.60
2022-11-03T05:18:50.100Z,60.80
2022-11-03T05:23:56.285Z,57.90
2022-11-03T05:29:04.466Z,50.90
2022-11-03T05:34:26.939Z,57.30
2022-11-03T05:39:36.707Z,50.20
2022-11-03T05:44:39.885Z,50.20
2022-11-03T05:49:41.773Z,52.50
2022-11-03T05:54:43.651Z,58.50
2022-11-03T05:59:48.409Z,67.90
2022-11-03T06:04:50.273Z,72.60
2022-11-03T06:09:53.700Z,65.00
2022-11-03T06:14:55.563Z,75.30
2022-11-03T06:20:00.297Z,93.60
2022-11-03T06:25:27.269Z,110.40
2022-11-03T06:30:34.642Z,113.20
2022-11-03T06:35:36.560Z,104.50
2022-11-03T06:40:39.150Z,84.60
2022-11-03T06:45:50.029Z,81.20
2022-11-03T06:50:52.837Z,106.60
2022-11-03T06:55:55.326Z,103.40
2022-11-03T07:01:03.764Z,111.60
2022-11-03T07:06:18.441Z,110.20
2022-11-03T07:11:26.151Z,106.80
2022-11-03T07:21:56.153Z,74.70
2022-11-03T07:27:01.177Z,73.80
2022-11-03T07:32:13.289Z,89.70
2022-11-03T07:37:22.945Z,94.80
2022-11-03T07:42:27.393Z,82.90
2022-11-03T07:47:34.647Z,79.60
2022-11-03T07:52:36.570Z,79.60
2022-11-03T07:57:39.574Z,76.90
2022-11-03T08:03:01.030Z,82.80
2022-11-03T08:08:02.761Z,76.10
2022-11-03T08:13:04.815Z,74.40
2022-11-03T08:18:06.816Z,56.50
2022-11-03T08:28:30.878Z,45.30
2022-11-03T08:33:34.846Z,39.40
2022-11-03T08:38:37.494Z,30.40
2022-11-03T08:43:39.373Z,33.40
2022-11-03T08:48:41.604Z,28.30
2022-11-03T08:53:43.617Z,24.40
2022-11-03T08:58:45.501Z,25.30
2022-11-03T09:03:47.334Z,24.70
2022-11-03T09:14:11.133Z,15.60
2022-11-03T09:19:12.901Z,10.00
2022-11-03T09:24:14.759Z,9.90
2022-11-03T09:29:16.577Z,8.50
2022-11-03T09:34:18.367Z,7.20
2022-11-03T09:39:20.153Z,6.60
2022-11-03T09:44:21.959Z,7.10
2022-11-03T09:49:23.811Z,5.20
2022-11-03T09:54:28.211Z,5.70
2022-11-03T09:59:30.440Z,6.00
2022-11-03T10:04:32.462Z,5.80
2022-11-03T10:09:34.637Z,5.90
2022-11-03T10:14:36.483Z,4.80
2022-11-03T10:19:38.312Z,5.50
2022-11-03T10:24:40.200Z,4.20
2022-11-03T10:29:43.777Z,4.40
2022-11-03T10:34:49.199Z,6.70
2022-11-03T10:39:53.128Z,6.70
2022-11-03T10:45:10.359Z,4.30
2022-11-03T10:50:22.507Z,4.70
2022-11-03T10:55:26.260Z,5.40
2022-11-03T11:00:28.186Z,3.90
2022-11-03T11:05:30.073Z,4.00
2022-11-03T11:10:32.115Z,4.10
2022-11-03T11:15:44.399Z,3.60
2022-11-03T11:20:46.280Z,3.80
2022-11-03T11:26:09.904Z,4.80
2022-11-03T11:31:27.117Z,4.80
2022-11-03T11:36:29.060Z,3.30
2022-11-03T11:42:08.637Z,4.50
2022-11-03T11:47:24.555Z,4.30
2022-11-03T11:52:27.866Z,6.00
2022-11-03T11:57:33.941Z,5.70
2022-11-03T12:02:36.329Z,6.90
2022-11-03T12:07:38.071Z,7.10
2022-11-03T12:12:39.983Z,6.80
2022-11-03T12:17:41.756Z,7.20
2022-11-03T12:22:43.759Z,6.90
2022-11-03T12:27:45.854Z,8.00
2022-11-03T12:32:48.207Z,6.50
2022-11-03T12:37:50.085Z,6.50
2022-11-03T12:42:51.962Z,7.70
2022-11-03T12:47:53.843Z,7.00
2022-11-03T12:52:55.719Z,5.90
2022-11-03T12:57:57.506Z,6.00
2022-11-03T13:02:59.304Z,6.10
2022-11-03T13:08:01.143Z,5.70
2022-11-03T13:13:02.868Z,4.70
2022-11-03T13:18:15.294Z,4.70
2022-11-03T13:23:20.276Z,5.00
2022-11-03T13:28:25.036Z,5.20
2022-11-03T13:33:26.811Z,5.70
2022-11-03T13:38:28.696Z,6.50
2022-11-03T13:43:30.574Z,5.40
2022-11-03T14:09:42.578Z,10.60
2022-11-03T14:14:44.504Z,9.40
2022-11-03T14:19:52.034Z,6.60
2022-11-03T14:24:54.702Z,6.10
2022-11-03T14:29:56.472Z,6.20
2022-11-03T14:34:58.454Z,5.90
2022-11-03T14:40:00.456Z,7.00
2022-11-03T14:45:02.289Z,7.10
2022-11-03T14:50:04.806Z,7.00
2022-11-03T14:55:07.304Z,8.50
2022-11-03T15:00:11.394Z,10.50
2022-11-03T15:05:33.118Z,10.80
2022-11-03T15:10:34.946Z,11.40
2022-11-03T15:15:37.339Z,9.60
2022-11-03T15:20:39.201Z,11.80
2022-11-03T15:25:41.201Z,11.30
2022-11-03T15:30:42.996Z,11.50
2022-11-03T15:35:45.097Z,9.80
2022-11-03T15:40:47.133Z,11.60
2022-11-03T15:45:49.013Z,9.90
2022-11-03T15:50:50.890Z,11.30
2022-11-03T15:55:52.669Z,13.30
2022-11-03T16:00:54.758Z,11.20
2022-11-03T16:05:56.674Z,11.50
2022-11-03T16:10:58.609Z,12.00
2022-11-03T16:16:00.584Z,12.00
2022-11-03T16:21:02.377Z,13.50
2022-11-03T16:26:05.775Z,16.40
2022-11-03T16:31:07.650Z,21.90
2022-11-03T16:36:09.528Z,31.40
2022-11-03T16:41:11.811Z,28.00
2022-11-03T16:46:13.738Z,25.30
2022-11-03T16:51:15.570Z,18.00
2022-11-03T16:56:17.340Z,14.60
2022-11-03T17:01:19.398Z,12.70
2022-11-03T17:06:22.221Z,12.60
2022-11-03T17:11:36.452Z,12.20
2022-11-03T17:16:38.700Z,13.20
2022-11-03T17:21:40.761Z,13.80
2022-11-03T17:26:51.478Z,14.10
2022-11-03T17:31:54.234Z,15.60
2022-11-03T17:36:56.836Z,13.80
2022-11-03T17:42:18.786Z,13.80
2022-11-03T17:47:21.291Z,14.00
2022-11-03T17:52:28.677Z,13.00
2022-11-03T17:57:31.009Z,13.60
2022-11-03T18:02:35.673Z,14.40
2022-11-03T18:07:38.613Z,13.30
2022-11-03T18:13:03.532Z,12.60
2022-11-03T18:18:29.386Z,12.40
2022-11-03T18:23:33.889Z,12.40
2022-11-03T18:28:35.682Z,15.20
2022-11-03T18:33:37.505Z,17.10
2022-11-03T18:38:41.441Z,17.10
2022-11-03T18:43:43.260Z,20.70
2022-11-03T18:48:45.141Z,18.10
2022-11-03T18:53:47.016Z,18.10
2022-11-03T18:58:52.686Z,18.60
2022-11-03T19:03:56.507Z,17.50
2022-11-03T19:08:59.858Z,19.80
2022-11-03T19:14:01.807Z,19.60
2022-11-03T19:19:03.878Z,16.50
2022-11-03T19:24:05.958Z,19.80
2022-11-03T19:29:13.311Z,18.10
2022-11-03T19:39:32.235Z,21.80
2022-11-03T19:49:36.952Z,23.10
2022-11-03T19:54:40.676Z,25.80
2022-11-03T19:59:43.666Z,33.40
2022-11-03T20:04:47.501Z,32.10
2022-11-03T20:09:49.376Z,27.60
2022-11-03T20:14:51.255Z,24.50
2022-11-03T20:19:53.435Z,22.50
2022-11-03T20:25:03.316Z,24.30
2022-11-03T20:30:05.998Z,23.50
2022-11-03T20:35:13.654Z,24.50
2022-11-03T20:40:19.521Z,23.80
2022-11-03T20:45:23.086Z,24.80
2022-11-03T20:50:25.610Z,24.60
2022-11-03T20:55:27.760Z,26.10
2022-11-03T21:00:31.757Z,25.40
2022-11-03T21:05:33.684Z,26.30
2022-11-03T21:10:35.867Z,26.00
2022-11-03T21:16:22.987Z,26.50
2022-11-03T21:21:21.484Z,27.50
2022-11-03T21:26:23.383Z,29.80
2022-11-03T21:31:25.259Z,28.40
2022-11-03T21:36:27.141Z,27.30
2022-11-03T21:41:47.583Z,27.30
2022-11-03T21:46:49.420Z,25.80
2022-11-03T21:51:51.301Z,29.90
2022-11-03T21:56:53.129Z,29.00
2022-11-03T22:01:55.426Z,31.20
2022-11-03T22:06:58.954Z,28.00
2022-11-03T22:12:05.781Z,24.10
2022-11-03T22:17:07.570Z,22.90
2022-11-03T22:22:43.627Z,22.80
2022-11-03T22:27:45.817Z,21.40
2022-11-03T22:32:53.461Z,22.30
2022-11-03T22:38:46.605Z,21.50
2022-11-03T22:44:06.936Z,21.20
2022-11-03T22:49:08.721Z,21.80
2022-11-03T22:54:10.465Z,23.00
2022-11-03T22:59:13.061Z,23.30
2022-11-03T23:04:14.940Z,23.10
2022-11-03T23:09:16.693Z,22.90
2022-11-03T23:14:18.689Z,21.90
2022-11-03T23:19:39.512Z,20.60
2022-11-03T23:25:00.272Z,20.60
2022-11-03T23:30:02.210Z,20.20
2022-11-03T23:35:04.815Z,20.10
2022-11-03T23:40:07.711Z,20.20
2022-11-03T23:45:28.837Z,19.90
2022-11-03T23:50:30.555Z,19.40
2022-11-03T23:55:53.889Z,18.40
